sensor_id;sensor_type;location;lat;lon;timestamp;P1;P2;P0
62591;PMS5003;48659;41.622;2.276;2022-12-18T00:00:06;34;30;
62591;PMS5003;48659;41.622;2.276;2022-12-18T00:02:35;32;29;
62591;PMS5003;48659;41.622;2.276;2022-12-18T00:05:03;33;29;
62591;PMS5003;48659;41.622;2.276;2022-12-18T00:07:30;25;25;
62591;PMS5003;48659;41.622;2.276;2022-12-18T00:09:58;26;25;
62591;PMS5003;48659;41.622;2.276;2022-12-18T00:12:32;25;24;
62591;PMS5003;48659;41.622;2.276;2022-12-18T00:14:59;33;30;
62591;PMS5003;48659;41.622;2.276;2022-12-18T00:17:27;31;30;
62591;PMS5003;48659;41.622;2.276;2022-12-18T00:19:54;33;30;
62591;PMS5003;48659;41.622;2.276;2022-12-18T00:22:21;27;25;
62591;PMS5003;48659;41.622;2.276;2022-12-18T00:24:48;37;34;
62591;PMS5003;48659;41.622;2.276;2022-12-18T00:27:16;33;29;
62591;PMS5003;48659;41.622;2.276;2022-12-18T00:29:43;35;32;
62591;PMS5003;48659;41.622;2.276;2022-12-18T00:32:11;32;28;
62591;PMS5003;48659;41.622;2.276;2022-12-18T00:34:38;32;32;
62591;PMS5003;48659;41.622;2.276;2022-12-18T00:37:05;34;29;
62591;PMS5003;48659;41.622;2.276;2022-12-18T00:39:33;31;28;
62591;PMS5003;48659;41.622;2.276;2022-12-18T00:42:01;37;29;
62591;PMS5003;48659;41.622;2.276;2022-12-18T00:44:33;30;30;
62591;PMS5003;48659;41.622;2.276;2022-12-18T00:47:00;36;34;
62591;PMS5003;48659;41.622;2.276;2022-12-18T00:49:33;44;37;
62591;PMS5003;48659;41.622;2.276;2022-12-18T00:52:01;43;41;
62591;PMS5003;48659;41.622;2.276;2022-12-18T00:54:28;31;31;
62591;PMS5003;48659;41.622;2.276;2022-12-18T00:56:55;33;29;
62591;PMS5003;48659;41.622;2.276;2022-12-18T00:59:22;36;33;
62591;PMS5003;48659;41.622;2.276;2022-12-18T01:01:50;36;33;
62591;PMS5003;48659;41.622;2.276;2022-12-18T01:04:17;29;29;
62591;PMS5003;48659;41.622;2.276;2022-12-18T01:06:44;32;27;
62591;PMS5003;48659;41.622;2.276;2022-12-18T01:09:12;36;32;
62591;PMS5003;48659;41.622;2.276;2022-12-18T01:11:40;33;29;
62591;PMS5003;48659;41.622;2.276;2022-12-18T01:14:07;31;31;
62591;PMS5003;48659;41.622;2.276;2022-12-18T01:16:34;48;43;
62591;PMS5003;48659;41.622;2.276;2022-12-18T01:19:01;33;29;
62591;PMS5003;48659;41.622;2.276;2022-12-18T01:21:28;35;34;
62591;PMS5003;48659;41.622;2.276;2022-12-18T01:23:56;37;37;
62591;PMS5003;48659;41.622;2.276;2022-12-18T01:26:25;40;36;
62591;PMS5003;48659;41.622;2.276;2022-12-18T01:28:53;36;36;
62591;PMS5003;48659;41.622;2.276;2022-12-18T01:31:23;32;31;
62591;PMS5003;48659;41.622;2.276;2022-12-18T01:33:52;37;37;
62591;PMS5003;48659;41.622;2.276;2022-12-18T01:36:20;33;33;
62591;PMS5003;48659;41.622;2.276;2022-12-18T01:38:49;37;32;
62591;PMS5003;48659;41.622;2.276;2022-12-18T01:41:18;37;32;
62591;PMS5003;48659;41.622;2.276;2022-12-18T01:43:49;34;29;
62591;PMS5003;48659;41.622;2.276;2022-12-18T01:46:18;32;31;
62591;PMS5003;48659;41.622;2.276;2022-12-18T01:48:48;28;28;
62591;PMS5003;48659;41.622;2.276;2022-12-18T01:51:18;33;32;
62591;PMS5003;48659;41.622;2.276;2022-12-18T01:53:46;33;30;
62591;PMS5003;48659;41.622;2.276;2022-12-18T01:56:14;31;29;
62591;PMS5003;48659;41.622;2.276;2022-12-18T01:58:47;30;27;
62591;PMS5003;48659;41.622;2.276;2022-12-18T02:01:22;28;28;
62591;PMS5003;48659;41.622;2.276;2022-12-18T02:03:51;36;30;
62591;PMS5003;48659;41.622;2.276;2022-12-18T02:06:19;27;27;
62591;PMS5003;48659;41.622;2.276;2022-12-18T02:08:56;28;26;
62591;PMS5003;48659;41.622;2.276;2022-12-18T02:11:32;32;30;
62591;PMS5003;48659;41.622;2.276;2022-12-18T02:14:10;27;26;
62591;PMS5003;48659;41.622;2.276;2022-12-18T02:16:49;29;27;
62591;PMS5003;48659;41.622;2.276;2022-12-18T02:19:25;33;30;
62591;PMS5003;48659;41.622;2.276;2022-12-18T02:22:13;32;30;
62591;PMS5003;48659;41.622;2.276;2022-12-18T02:24:54;30;30;
62591;PMS5003;48659;41.622;2.276;2022-12-18T02:27:31;34;32;
62591;PMS5003;48659;41.622;2.276;2022-12-18T02:30:01;33;33;
62591;PMS5003;48659;41.622;2.276;2022-12-18T02:32:35;33;28;
62591;PMS5003;48659;41.622;2.276;2022-12-18T02:35:13;32;32;
62591;PMS5003;48659;41.622;2.276;2022-12-18T02:37:47;34;33;
62591;PMS5003;48659;41.622;2.276;2022-12-18T02:40:15;31;29;
62591;PMS5003;48659;41.622;2.276;2022-12-18T02:42:46;31;28;
62591;PMS5003;48659;41.622;2.276;2022-12-18T02:45:13;37;32;
62591;PMS5003;48659;41.622;2.276;2022-12-18T02:47:40;31;30;
62591;PMS5003;48659;41.622;2.276;2022-12-18T02:50:19;34;32;
62591;PMS5003;48659;41.622;2.276;2022-12-18T02:52:55;32;29;
62591;PMS5003;48659;41.622;2.276;2022-12-18T02:55:35;35;33;
62591;PMS5003;48659;41.622;2.276;2022-12-18T02:58:14;37;33;
62591;PMS5003;48659;41.622;2.276;2022-12-18T03:00:48;40;35;
62591;PMS5003;48659;41.622;2.276;2022-12-18T03:03:21;35;35;
62591;PMS5003;48659;41.622;2.276;2022-12-18T03:06:05;35;32;
62591;PMS5003;48659;41.622;2.276;2022-12-18T03:08:37;35;31;
62591;PMS5003;48659;41.622;2.276;2022-12-18T03:11:08;37;35;
62591;PMS5003;48659;41.622;2.276;2022-12-18T03:13:39;30;30;
62591;PMS5003;48659;41.622;2.276;2022-12-18T03:16:10;32;31;
62591;PMS5003;48659;41.622;2.276;2022-12-18T03:18:42;37;34;
62591;PMS5003;48659;41.622;2.276;2022-12-18T03:21:13;39;34;
62591;PMS5003;48659;41.622;2.276;2022-12-18T03:23:45;33;31;
62591;PMS5003;48659;41.622;2.276;2022-12-18T03:26:20;37;32;
62591;PMS5003;48659;41.622;2.276;2022-12-18T03:28:52;35;33;
62591;PMS5003;48659;41.622;2.276;2022-12-18T03:31:23;39;37;
62591;PMS5003;48659;41.622;2.276;2022-12-18T03:34:08;30;28;
62591;PMS5003;48659;41.622;2.276;2022-12-18T03:36:39;38;34;
62591;PMS5003;48659;41.622;2.276;2022-12-18T03:39:07;39;35;
62591;PMS5003;48659;41.622;2.276;2022-12-18T03:41:37;33;32;
62591;PMS5003;48659;41.622;2.276;2022-12-18T03:44:11;29;28;
62591;PMS5003;48659;41.622;2.276;2022-12-18T03:46:41;29;26;
62591;PMS5003;48659;41.622;2.276;2022-12-18T03:49:17;27;27;
62591;PMS5003;48659;41.622;2.276;2022-12-18T03:51:50;29;29;
62591;PMS5003;48659;41.622;2.276;2022-12-18T03:54:23;31;29;
62591;PMS5003;48659;41.622;2.276;2022-12-18T03:56:54;37;37;
62591;PMS5003;48659;41.622;2.276;2022-12-18T03:59:30;34;32;
62591;PMS5003;48659;41.622;2.276;2022-12-18T04:02:00;29;25;
62591;PMS5003;48659;41.622;2.276;2022-12-18T04:04:35;27;26;
62591;PMS5003;48659;41.622;2.276;2022-12-18T04:07:04;34;30;
62591;PMS5003;48659;41.622;2.276;2022-12-18T04:09:33;39;36;
62591;PMS5003;48659;41.622;2.276;2022-12-18T04:12:04;32;30;
62591;PMS5003;48659;41.622;2.276;2022-12-18T04:14:32;28;27;
62591;PMS5003;48659;41.622;2.276;2022-12-18T04:17:00;30;28;
62591;PMS5003;48659;41.622;2.276;2022-12-18T04:19:28;32;31;
62591;PMS5003;48659;41.622;2.276;2022-12-18T04:21:56;28;26;
62591;PMS5003;48659;41.622;2.276;2022-12-18T04:24:23;28;26;
62591;PMS5003;48659;41.622;2.276;2022-12-18T04:26:51;29;29;
62591;PMS5003;48659;41.622;2.276;2022-12-18T04:29:18;26;24;
62591;PMS5003;48659;41.622;2.276;2022-12-18T04:31:46;25;24;
62591;PMS5003;48659;41.622;2.276;2022-12-18T04:34:13;29;29;
62591;PMS5003;48659;41.622;2.276;2022-12-18T04:36:41;31;29;
62591;PMS5003;48659;41.622;2.276;2022-12-18T04:39:08;25;24;
62591;PMS5003;48659;41.622;2.276;2022-12-18T04:41:35;26;24;
62591;PMS5003;48659;41.622;2.276;2022-12-18T04:44:03;26;24;
62591;PMS5003;48659;41.622;2.276;2022-12-18T04:46:34;34;30;
62591;PMS5003;48659;41.622;2.276;2022-12-18T04:49:01;25;24;
62591;PMS5003;48659;41.622;2.276;2022-12-18T04:51:28;30;29;
62591;PMS5003;48659;41.622;2.276;2022-12-18T04:53:56;29;26;
62591;PMS5003;48659;41.622;2.276;2022-12-18T04:56:23;27;27;
62591;PMS5003;48659;41.622;2.276;2022-12-18T04:58:50;24;24;
62591;PMS5003;48659;41.622;2.276;2022-12-18T05:01:18;28;26;
62591;PMS5003;48659;41.622;2.276;2022-12-18T05:03:45;27;27;
62591;PMS5003;48659;41.622;2.276;2022-12-18T05:06:13;24;23;
62591;PMS5003;48659;41.622;2.276;2022-12-18T05:08:40;29;24;
62591;PMS5003;48659;41.622;2.276;2022-12-18T05:11:08;29;27;
62591;PMS5003;48659;41.622;2.276;2022-12-18T05:13:37;27;23;
62591;PMS5003;48659;41.622;2.276;2022-12-18T05:16:05;34;31;
62591;PMS5003;48659;41.622;2.276;2022-12-18T05:18:34;26;24;
62591;PMS5003;48659;41.622;2.276;2022-12-18T05:21:01;31;27;
62591;PMS5003;48659;41.622;2.276;2022-12-18T05:23:34;35;31;
62591;PMS5003;48659;41.622;2.276;2022-12-18T05:26:03;31;30;
62591;PMS5003;48659;41.622;2.276;2022-12-18T05:28:34;35;33;
62591;PMS5003;48659;41.622;2.276;2022-12-18T05:31:03;33;31;
62591;PMS5003;48659;41.622;2.276;2022-12-18T05:33:32;29;28;
62591;PMS5003;48659;41.622;2.276;2022-12-18T05:36:01;35;33;
62591;PMS5003;48659;41.622;2.276;2022-12-18T05:38:31;31;27;
62591;PMS5003;48659;41.622;2.276;2022-12-18T05:41:00;37;33;
62591;PMS5003;48659;41.622;2.276;2022-12-18T05:43:34;34;33;
62591;PMS5003;48659;41.622;2.276;2022-12-18T05:46:03;32;31;
62591;PMS5003;48659;41.622;2.276;2022-12-18T05:48:31;27;27;
62591;PMS5003;48659;41.622;2.276;2022-12-18T05:51:03;33;31;
62591;PMS5003;48659;41.622;2.276;2022-12-18T05:53:32;35;32;
62591;PMS5003;48659;41.622;2.276;2022-12-18T05:56:01;33;28;
62591;PMS5003;48659;41.622;2.276;2022-12-18T05:58:31;40;36;
62591;PMS5003;48659;41.622;2.276;2022-12-18T06:01:05;29;26;
62591;PMS5003;48659;41.622;2.276;2022-12-18T06:03:34;30;28;
62591;PMS5003;48659;41.622;2.276;2022-12-18T06:06:02;40;37;
62591;PMS5003;48659;41.622;2.276;2022-12-18T06:08:30;35;32;
62591;PMS5003;48659;41.622;2.276;2022-12-18T06:10:58;30;30;
62591;PMS5003;48659;41.622;2.276;2022-12-18T06:13:25;32;30;
62591;PMS5003;48659;41.622;2.276;2022-12-18T06:15:53;38;35;
62591;PMS5003;48659;41.622;2.276;2022-12-18T06:18:20;40;37;
62591;PMS5003;48659;41.622;2.276;2022-12-18T06:20:54;38;36;
62591;PMS5003;48659;41.622;2.276;2022-12-18T06:23:21;34;33;
62591;PMS5003;48659;41.622;2.276;2022-12-18T06:25:50;28;28;
62591;PMS5003;48659;41.622;2.276;2022-12-18T06:28:18;33;29;
62591;PMS5003;48659;41.622;2.276;2022-12-18T06:30:45;38;31;
62591;PMS5003;48659;41.622;2.276;2022-12-18T06:33:14;34;34;
62591;PMS5003;48659;41.622;2.276;2022-12-18T06:35:42;29;29;
62591;PMS5003;48659;41.622;2.276;2022-12-18T06:38:10;32;32;
62591;PMS5003;48659;41.622;2.276;2022-12-18T06:40:37;30;27;
62591;PMS5003;48659;41.622;2.276;2022-12-18T06:43:04;35;33;
62591;PMS5003;48659;41.622;2.276;2022-12-18T06:45:32;40;35;
62591;PMS5003;48659;41.622;2.276;2022-12-18T06:48:00;35;32;
62591;PMS5003;48659;41.622;2.276;2022-12-18T06:50:27;34;32;
62591;PMS5003;48659;41.622;2.276;2022-12-18T06:52:54;33;31;
62591;PMS5003;48659;41.622;2.276;2022-12-18T06:55:22;35;32;
62591;PMS5003;48659;41.622;2.276;2022-12-18T06:57:49;29;29;
62591;PMS5003;48659;41.622;2.276;2022-12-18T07:00:18;28;26;
62591;PMS5003;48659;41.622;2.276;2022-12-18T07:02:45;35;33;
62591;PMS5003;48659;41.622;2.276;2022-12-18T07:05:13;28;26;
62591;PMS5003;48659;41.622;2.276;2022-12-18T07:07:41;32;30;
62591;PMS5003;48659;41.622;2.276;2022-12-18T07:10:09;30;30;
62591;PMS5003;48659;41.622;2.276;2022-12-18T07:12:37;31;30;
62591;PMS5003;48659;41.622;2.276;2022-12-18T07:15:05;35;30;
62591;PMS5003;48659;41.622;2.276;2022-12-18T07:17:33;32;31;
62591;PMS5003;48659;41.622;2.276;2022-12-18T07:20:01;31;28;
62591;PMS5003;48659;41.622;2.276;2022-12-18T07:22:29;29;28;
62591;PMS5003;48659;41.622;2.276;2022-12-18T07:24:56;28;28;
62591;PMS5003;48659;41.622;2.276;2022-12-18T07:27:23;32;31;
62591;PMS5003;48659;41.622;2.276;2022-12-18T07:29:51;33;32;
62591;PMS5003;48659;41.622;2.276;2022-12-18T07:32:18;27;25;
62591;PMS5003;48659;41.622;2.276;2022-12-18T07:34:46;31;27;
62591;PMS5003;48659;41.622;2.276;2022-12-18T07:37:13;29;25;
62591;PMS5003;48659;41.622;2.276;2022-12-18T07:39:40;31;30;
62591;PMS5003;48659;41.622;2.276;2022-12-18T07:42:07;37;32;
62591;PMS5003;48659;41.622;2.276;2022-12-18T07:44:35;26;26;
62591;PMS5003;48659;41.622;2.276;2022-12-18T07:47:03;28;27;
62591;PMS5003;48659;41.622;2.276;2022-12-18T07:49:31;37;34;
62591;PMS5003;48659;41.622;2.276;2022-12-18T07:51:59;29;28;
62591;PMS5003;48659;41.622;2.276;2022-12-18T07:54:26;31;31;
62591;PMS5003;48659;41.622;2.276;2022-12-18T07:56:53;27;26;
62591;PMS5003;48659;41.622;2.276;2022-12-18T07:59:21;46;40;
62591;PMS5003;48659;41.622;2.276;2022-12-18T08:01:48;29;27;
62591;PMS5003;48659;41.622;2.276;2022-12-18T08:04:15;28;27;
62591;PMS5003;48659;41.622;2.276;2022-12-18T08:06:43;35;32;
62591;PMS5003;48659;41.622;2.276;2022-12-18T08:09:10;26;25;
62591;PMS5003;48659;41.622;2.276;2022-12-18T08:11:38;30;27;
62591;PMS5003;48659;41.622;2.276;2022-12-18T08:14:05;38;36;
62591;PMS5003;48659;41.622;2.276;2022-12-18T08:16:32;29;26;
62591;PMS5003;48659;41.622;2.276;2022-12-18T08:19:01;25;25;
62591;PMS5003;48659;41.622;2.276;2022-12-18T08:21:29;26;24;
62591;PMS5003;48659;41.622;2.276;2022-12-18T08:23:59;35;33;
62591;PMS5003;48659;41.622;2.276;2022-12-18T08:26:28;31;28;
62591;PMS5003;48659;41.622;2.276;2022-12-18T08:28:57;37;32;
62591;PMS5003;48659;41.622;2.276;2022-12-18T08:31:27;31;26;
62591;PMS5003;48659;41.622;2.276;2022-12-18T08:33:56;29;27;
62591;PMS5003;48659;41.622;2.276;2022-12-18T08:36:24;24;22;
62591;PMS5003;48659;41.622;2.276;2022-12-18T08:38:51;42;39;
62591;PMS5003;48659;41.622;2.276;2022-12-18T08:41:19;37;36;
62591;PMS5003;48659;41.622;2.276;2022-12-18T08:43:48;36;34;
62591;PMS5003;48659;41.622;2.276;2022-12-18T08:46:15;31;28;
62591;PMS5003;48659;41.622;2.276;2022-12-18T08:48:44;30;23;
62591;PMS5003;48659;41.622;2.276;2022-12-18T08:51:12;32;30;
62591;PMS5003;48659;41.622;2.276;2022-12-18T08:53:42;21;21;
62591;PMS5003;48659;41.622;2.276;2022-12-18T08:56:09;27;24;
62591;PMS5003;48659;41.622;2.276;2022-12-18T08:58:37;24;23;
62591;PMS5003;48659;41.622;2.276;2022-12-18T09:01:06;38;36;
62591;PMS5003;48659;41.622;2.276;2022-12-18T09:03:34;43;40;
62591;PMS5003;48659;41.622;2.276;2022-12-18T09:06:02;27;25;
62591;PMS5003;48659;41.622;2.276;2022-12-18T09:08:30;34;34;
62591;PMS5003;48659;41.622;2.276;2022-12-18T09:10:57;40;37;
62591;PMS5003;48659;41.622;2.276;2022-12-18T09:13:25;36;36;
62591;PMS5003;48659;41.622;2.276;2022-12-18T09:15:54;33;31;
62591;PMS5003;48659;41.622;2.276;2022-12-18T09:18:21;37;34;
62591;PMS5003;48659;41.622;2.276;2022-12-18T09:20:50;35;34;
62591;PMS5003;48659;41.622;2.276;2022-12-18T09:23:18;38;37;
62591;PMS5003;48659;41.622;2.276;2022-12-18T09:25:45;40;39;
62591;PMS5003;48659;41.622;2.276;2022-12-18T09:28:14;57;50;
62591;PMS5003;48659;41.622;2.276;2022-12-18T09:30:43;43;42;
62591;PMS5003;48659;41.622;2.276;2022-12-18T09:33:13;41;39;
62591;PMS5003;48659;41.622;2.276;2022-12-18T09:35:42;37;36;
62591;PMS5003;48659;41.622;2.276;2022-12-18T09:38:11;46;45;
62591;PMS5003;48659;41.622;2.276;2022-12-18T09:40:41;38;37;
62591;PMS5003;48659;41.622;2.276;2022-12-18T09:43:12;44;41;
62591;PMS5003;48659;41.622;2.276;2022-12-18T09:45:44;42;38;
62591;PMS5003;48659;41.622;2.276;2022-12-18T09:48:18;43;42;
62591;PMS5003;48659;41.622;2.276;2022-12-18T09:50:49;39;38;
62591;PMS5003;48659;41.622;2.276;2022-12-18T09:53:20;45;44;
62591;PMS5003;48659;41.622;2.276;2022-12-18T09:55:52;44;43;
62591;PMS5003;48659;41.622;2.276;2022-12-18T09:58:24;46;43;
62591;PMS5003;48659;41.622;2.276;2022-12-18T10:01:09;47;47;
62591;PMS5003;48659;41.622;2.276;2022-12-18T10:03:38;46;46;
62591;PMS5003;48659;41.622;2.276;2022-12-18T10:06:06;51;45;
62591;PMS5003;48659;41.622;2.276;2022-12-18T10:08:41;53;48;
62591;PMS5003;48659;41.622;2.276;2022-12-18T10:11:19;41;37;
62591;PMS5003;48659;41.622;2.276;2022-12-18T10:13:53;49;44;
62591;PMS5003;48659;41.622;2.276;2022-12-18T10:16:24;54;48;
62591;PMS5003;48659;41.622;2.276;2022-12-18T10:19:03;52;51;
62591;PMS5003;48659;41.622;2.276;2022-12-18T10:21:44;46;44;
62591;PMS5003;48659;41.622;2.276;2022-12-18T10:24:18;47;44;
62591;PMS5003;48659;41.622;2.276;2022-12-18T10:26:53;47;46;
62591;PMS5003;48659;41.622;2.276;2022-12-18T10:29:33;46;45;
62591;PMS5003;48659;41.622;2.276;2022-12-18T10:32:00;46;45;
62591;PMS5003;48659;41.622;2.276;2022-12-18T10:34:28;45;42;
62591;PMS5003;48659;41.622;2.276;2022-12-18T10:36:55;40;39;
62591;PMS5003;48659;41.622;2.276;2022-12-18T10:39:23;48;41;
62591;PMS5003;48659;41.622;2.276;2022-12-18T10:41:51;45;38;
62591;PMS5003;48659;41.622;2.276;2022-12-18T10:44:35;45;43;
62591;PMS5003;48659;41.622;2.276;2022-12-18T10:47:04;44;39;
62591;PMS5003;48659;41.622;2.276;2022-12-18T10:49:37;47;46;
62591;PMS5003;48659;41.622;2.276;2022-12-18T10:52:14;46;45;
62591;PMS5003;48659;41.622;2.276;2022-12-18T10:54:46;45;42;
62591;PMS5003;48659;41.622;2.276;2022-12-18T10:57:16;49;43;
62591;PMS5003;48659;41.622;2.276;2022-12-18T10:59:57;43;40;
62591;PMS5003;48659;41.622;2.276;2022-12-18T11:02:28;46;44;
62591;PMS5003;48659;41.622;2.276;2022-12-18T11:05:01;55;52;
62591;PMS5003;48659;41.622;2.276;2022-12-18T11:07:49;62;55;
62591;PMS5003;48659;41.622;2.276;2022-12-18T11:10:17;48;42;
62591;PMS5003;48659;41.622;2.276;2022-12-18T11:12:45;38;37;
62591;PMS5003;48659;41.622;2.276;2022-12-18T11:15:15;45;45;
62591;PMS5003;48659;41.622;2.276;2022-12-18T11:17:46;47;43;
62591;PMS5003;48659;41.622;2.276;2022-12-18T11:20:21;47;40;
62591;PMS5003;48659;41.622;2.276;2022-12-18T11:22:57;47;44;
62591;PMS5003;48659;41.622;2.276;2022-12-18T11:25:29;51;48;
62591;PMS5003;48659;41.622;2.276;2022-12-18T11:28:03;43;41;
62591;PMS5003;48659;41.622;2.276;2022-12-18T11:30:33;39;39;
62591;PMS5003;48659;41.622;2.276;2022-12-18T11:33:03;48;43;
62591;PMS5003;48659;41.622;2.276;2022-12-18T11:35:35;52;51;
62591;PMS5003;48659;41.622;2.276;2022-12-18T11:38:13;50;50;
62591;PMS5003;48659;41.622;2.276;2022-12-18T11:40:50;54;49;
62591;PMS5003;48659;41.622;2.276;2022-12-18T11:43:25;53;50;
62591;PMS5003;48659;41.622;2.276;2022-12-18T11:45:59;55;54;
62591;PMS5003;48659;41.622;2.276;2022-12-18T11:48:32;56;52;
62591;PMS5003;48659;41.622;2.276;2022-12-18T11:51:04;59;57;
62591;PMS5003;48659;41.622;2.276;2022-12-18T11:53:37;53;52;
62591;PMS5003;48659;41.622;2.276;2022-12-18T11:56:11;47;44;
62591;PMS5003;48659;41.622;2.276;2022-12-18T11:58:59;45;45;
62591;PMS5003;48659;41.622;2.276;2022-12-18T12:01:36;47;42;
62591;PMS5003;48659;41.622;2.276;2022-12-18T12:04:17;44;42;
62591;PMS5003;48659;41.622;2.276;2022-12-18T12:06:58;46;42;
62591;PMS5003;48659;41.622;2.276;2022-12-18T12:09:39;39;37;
62591;PMS5003;48659;41.622;2.276;2022-12-18T12:12:22;46;43;
62591;PMS5003;48659;41.622;2.276;2022-12-18T12:14:59;40;38;
62591;PMS5003;48659;41.622;2.276;2022-12-18T12:17:41;40;39;
62591;PMS5003;48659;41.622;2.276;2022-12-18T12:20:15;42;42;
62591;PMS5003;48659;41.622;2.276;2022-12-18T12:22:50;31;28;
62591;PMS5003;48659;41.622;2.276;2022-12-18T12:25:30;28;28;
62591;PMS5003;48659;41.622;2.276;2022-12-18T12:28:14;28;26;
62591;PMS5003;48659;41.622;2.276;2022-12-18T12:30:52;25;24;
62591;PMS5003;48659;41.622;2.276;2022-12-18T12:33:32;27;27;
62591;PMS5003;48659;41.622;2.276;2022-12-18T12:36:08;35;32;
62591;PMS5003;48659;41.622;2.276;2022-12-18T12:38:44;47;45;
62591;PMS5003;48659;41.622;2.276;2022-12-18T12:41:16;41;37;
62591;PMS5003;48659;41.622;2.276;2022-12-18T12:43:47;41;38;
62591;PMS5003;48659;41.622;2.276;2022-12-18T12:46:16;35;31;
62591;PMS5003;48659;41.622;2.276;2022-12-18T12:48:46;35;35;
62591;PMS5003;48659;41.622;2.276;2022-12-18T12:51:17;39;39;
62591;PMS5003;48659;41.622;2.276;2022-12-18T12:53:47;34;33;
62591;PMS5003;48659;41.622;2.276;2022-12-18T12:56:16;42;38;
62591;PMS5003;48659;41.622;2.276;2022-12-18T12:58:48;45;40;
62591;PMS5003;48659;41.622;2.276;2022-12-18T13:01:25;42;36;
62591;PMS5003;48659;41.622;2.276;2022-12-18T13:04:04;40;37;
62591;PMS5003;48659;41.622;2.276;2022-12-18T13:06:45;50;44;
62591;PMS5003;48659;41.622;2.276;2022-12-18T13:09:20;41;38;
62591;PMS5003;48659;41.622;2.276;2022-12-18T13:11:48;40;38;
62591;PMS5003;48659;41.622;2.276;2022-12-18T13:14:20;41;38;
62591;PMS5003;48659;41.622;2.276;2022-12-18T13:16:49;46;43;
62591;PMS5003;48659;41.622;2.276;2022-12-18T13:19:21;38;37;
62591;PMS5003;48659;41.622;2.276;2022-12-18T13:21:52;39;36;
62591;PMS5003;48659;41.622;2.276;2022-12-18T13:24:23;48;46;
62591;PMS5003;48659;41.622;2.276;2022-12-18T13:26:53;40;38;
62591;PMS5003;48659;41.622;2.276;2022-12-18T13:29:40;36;35;
62591;PMS5003;48659;41.622;2.276;2022-12-18T13:32:25;43;41;
62591;PMS5003;48659;41.622;2.276;2022-12-18T13:36:01;44;40;
62591;PMS5003;48659;41.622;2.276;2022-12-18T13:38:38;43;42;
62591;PMS5003;48659;41.622;2.276;2022-12-18T13:41:22;40;39;
62591;PMS5003;48659;41.622;2.276;2022-12-18T13:43:52;38;36;
62591;PMS5003;48659;41.622;2.276;2022-12-18T13:46:23;35;34;
62591;PMS5003;48659;41.622;2.276;2022-12-18T13:48:55;43;40;
62591;PMS5003;48659;41.622;2.276;2022-12-18T13:51:24;37;37;
62591;PMS5003;48659;41.622;2.276;2022-12-18T13:53:54;40;38;
62591;PMS5003;48659;41.622;2.276;2022-12-18T13:56:25;33;33;
62591;PMS5003;48659;41.622;2.276;2022-12-18T14:00:19;35;33;
62591;PMS5003;48659;41.622;2.276;2022-12-18T14:02:52;39;35;
62591;PMS5003;48659;41.622;2.276;2022-12-18T14:05:21;31;31;
62591;PMS5003;48659;41.622;2.276;2022-12-18T14:07:49;34;33;
62591;PMS5003;48659;41.622;2.276;2022-12-18T14:10:18;36;33;
62591;PMS5003;48659;41.622;2.276;2022-12-18T14:12:48;38;38;
62591;PMS5003;48659;41.622;2.276;2022-12-18T14:15:19;31;31;
62591;PMS5003;48659;41.622;2.276;2022-12-18T14:17:52;32;30;
62591;PMS5003;48659;41.622;2.276;2022-12-18T14:20:21;31;29;
62591;PMS5003;48659;41.622;2.276;2022-12-18T14:22:51;31;30;
62591;PMS5003;48659;41.622;2.276;2022-12-18T14:25:19;30;28;
62591;PMS5003;48659;41.622;2.276;2022-12-18T14:27:50;31;28;
62591;PMS5003;48659;41.622;2.276;2022-12-18T14:30:28;26;26;
62591;PMS5003;48659;41.622;2.276;2022-12-18T14:33:01;29;29;
62591;PMS5003;48659;41.622;2.276;2022-12-18T14:35:31;22;22;
62591;PMS5003;48659;41.622;2.276;2022-12-18T14:38:32;24;22;
62591;PMS5003;48659;41.622;2.276;2022-12-18T14:41:01;33;30;
62591;PMS5003;48659;41.622;2.276;2022-12-18T14:43:31;24;23;
62591;PMS5003;48659;41.622;2.276;2022-12-18T14:46:06;32;29;
62591;PMS5003;48659;41.622;2.276;2022-12-18T14:48:56;34;30;
62591;PMS5003;48659;41.622;2.276;2022-12-18T14:51:23;27;26;
62591;PMS5003;48659;41.622;2.276;2022-12-18T14:53:54;29;29;
62591;PMS5003;48659;41.622;2.276;2022-12-18T14:56:24;29;29;
62591;PMS5003;48659;41.622;2.276;2022-12-18T14:58:54;30;28;
62591;PMS5003;48659;41.622;2.276;2022-12-18T15:01:25;25;22;
62591;PMS5003;48659;41.622;2.276;2022-12-18T15:03:55;26;24;
62591;PMS5003;48659;41.622;2.276;2022-12-18T15:06:27;32;25;
62591;PMS5003;48659;41.622;2.276;2022-12-18T15:08:56;24;23;
62591;PMS5003;48659;41.622;2.276;2022-12-18T15:11:26;24;24;
62591;PMS5003;48659;41.622;2.276;2022-12-18T15:13:57;25;25;
62591;PMS5003;48659;41.622;2.276;2022-12-18T15:16:24;27;25;
62591;PMS5003;48659;41.622;2.276;2022-12-18T15:18:52;25;25;
62591;PMS5003;48659;41.622;2.276;2022-12-18T15:21:20;27;26;
62591;PMS5003;48659;41.622;2.276;2022-12-18T15:23:48;26;23;
62591;PMS5003;48659;41.622;2.276;2022-12-18T15:26:18;25;22;
62591;PMS5003;48659;41.622;2.276;2022-12-18T15:28:48;32;28;
62591;PMS5003;48659;41.622;2.276;2022-12-18T15:31:22;26;25;
62591;PMS5003;48659;41.622;2.276;2022-12-18T15:34:23;31;26;
62591;PMS5003;48659;41.622;2.276;2022-12-18T15:36:51;27;25;
62591;PMS5003;48659;41.622;2.276;2022-12-18T15:39:18;27;27;
62591;PMS5003;48659;41.622;2.276;2022-12-18T15:41:47;33;30;
62591;PMS5003;48659;41.622;2.276;2022-12-18T15:44:21;30;30;
62591;PMS5003;48659;41.622;2.276;2022-12-18T15:46:50;33;31;
62591;PMS5003;48659;41.622;2.276;2022-12-18T15:49:18;29;26;
62591;PMS5003;48659;41.622;2.276;2022-12-18T15:51:46;29;26;
62591;PMS5003;48659;41.622;2.276;2022-12-18T15:54:18;31;28;
62591;PMS5003;48659;41.622;2.276;2022-12-18T15:56:46;30;28;
62591;PMS5003;48659;41.622;2.276;2022-12-18T15:59:14;33;32;
62591;PMS5003;48659;41.622;2.276;2022-12-18T16:01:44;38;33;
62591;PMS5003;48659;41.622;2.276;2022-12-18T16:04:14;34;33;
62591;PMS5003;48659;41.622;2.276;2022-12-18T16:06:43;36;33;
62591;PMS5003;48659;41.622;2.276;2022-12-18T16:09:10;37;35;
62591;PMS5003;48659;41.622;2.276;2022-12-18T16:11:39;34;33;
62591;PMS5003;48659;41.622;2.276;2022-12-18T16:14:12;34;33;
62591;PMS5003;48659;41.622;2.276;2022-12-18T16:16:43;30;30;
62591;PMS5003;48659;41.622;2.276;2022-12-18T16:19:10;32;32;
62591;PMS5003;48659;41.622;2.276;2022-12-18T16:21:38;34;34;
62591;PMS5003;48659;41.622;2.276;2022-12-18T16:24:08;32;30;
62591;PMS5003;48659;41.622;2.276;2022-12-18T16:26:42;39;36;
62591;PMS5003;48659;41.622;2.276;2022-12-18T16:29:10;39;35;
62591;PMS5003;48659;41.622;2.276;2022-12-18T16:31:37;40;36;
62591;PMS5003;48659;41.622;2.276;2022-12-18T16:34:13;31;30;
62591;PMS5003;48659;41.622;2.276;2022-12-18T16:36:42;31;31;
62591;PMS5003;48659;41.622;2.276;2022-12-18T16:39:09;33;32;
62591;PMS5003;48659;41.622;2.276;2022-12-18T16:41:37;34;33;
62591;PMS5003;48659;41.622;2.276;2022-12-18T16:44:04;39;39;